createdAt,value
2018-08-23T00:00:08.350Z,68.52
2018-08-23T00:02:35.807Z,68.54
2018-08-23T00:05:03.205Z,68.93
2018-08-23T00:07:30.701Z,68.97
2018-08-23T00:09:58.124Z,68.78
2018-08-23T00:12:25.537Z,69.01
2018-08-23T00:14:53.018Z,69.05
2018-08-23T00:17:20.455Z,68.99
2018-08-23T00:19:47.988Z,68.55
2018-08-23T00:22:15.512Z,68.33
2018-08-23T00:24:43.556Z,68.53
2018-08-23T00:27:11.100Z,68.68
2018-08-23T00:29:38.523Z,69.06
2018-08-23T00:32:06.048Z,68.66
2018-08-23T00:34:33.493Z,69.51
2018-08-23T00:37:00.893Z,68.91
2018-08-23T00:39:28.299Z,68.68
2018-08-23T00:41:55.722Z,68.71
2018-08-23T00:44:23.208Z,68.41
2018-08-23T00:46:50.812Z,68.64
2018-08-23T00:49:18.218Z,68.66
2018-08-23T00:51:46.096Z,68.86
2018-08-23T00:54:13.651Z,68.73
2018-08-23T00:56:41.839Z,68.82
2018-08-23T00:59:09.303Z,69.05
2018-08-23T01:01:36.772Z,69.18
2018-08-23T01:04:04.392Z,69.24
2018-08-23T01:06:31.811Z,68.95
2018-08-23T01:08:59.228Z,68.71
2018-08-23T01:11:26.678Z,68.52
2018-08-23T01:13:54.150Z,68.48
2018-08-23T01:16:21.641Z,68.56
2018-08-23T01:18:49.107Z,69.09
2018-08-23T01:21:16.537Z,69.71
2018-08-23T01:23:44.001Z,70.54
2018-08-23T01:26:11.680Z,71.56
2018-08-23T01:28:39.141Z,72.12
2018-08-23T01:31:07.382Z,72.26
2018-08-23T01:33:34.838Z,72.67
2018-08-23T01:36:02.300Z,72.82
2018-08-23T01:38:29.834Z,72.28
2018-08-23T01:40:57.270Z,71.89
2018-08-23T01:43:24.716Z,71.48
2018-08-23T01:45:52.150Z,70.94
2018-08-23T01:48:19.544Z,71.02
2018-08-23T01:50:47.025Z,70.66
2018-08-23T01:53:15.723Z,70.30
2018-08-23T01:55:43.168Z,70.22
2018-08-23T01:58:10.588Z,70.22
2018-08-23T02:00:38.047Z,70.56
2018-08-23T02:03:05.592Z,71.16
2018-08-23T02:05:33.102Z,71.54
2018-08-23T02:08:00.881Z,72.34
2018-08-23T02:10:28.320Z,73.14
2018-08-23T02:12:55.734Z,73.69
2018-08-23T02:15:23.190Z,74.10
2018-08-23T02:17:50.616Z,74.15
2018-08-23T02:20:18.026Z,74.06
2018-08-23T02:22:45.441Z,73.94
2018-08-23T02:25:12.877Z,74.14
2018-08-23T02:27:40.358Z,74.13
2018-08-23T02:30:07.997Z,73.56
2018-08-23T02:32:35.433Z,73.67
2018-08-23T02:35:02.856Z,74.06
2018-08-23T02:37:30.344Z,73.76
2018-08-23T02:39:57.793Z,73.39
2018-08-23T02:42:25.198Z,73.17
2018-08-23T02:44:52.648Z,73.35
2018-08-23T02:47:20.093Z,73.22
2018-08-23T02:49:47.537Z,72.92
2018-08-23T02:52:14.942Z,72.59
2018-08-23T02:54:42.391Z,72.43
2018-08-23T02:57:09.784Z,72.36
2018-08-23T02:59:37.245Z,72.50
2018-08-23T03:02:04.823Z,72.69
2018-08-23T03:04:32.260Z,72.89
2018-08-23T03:06:59.712Z,72.94
2018-08-23T03:09:27.166Z,72.99
2018-08-23T03:11:54.687Z,73.40
2018-08-23T03:14:22.168Z,73.61
2018-08-23T03:16:49.590Z,74.10
2018-08-23T03:19:17.025Z,74.43
2018-08-23T03:21:44.455Z,74.38
2018-08-23T03:24:11.902Z,74.12
2018-08-23T03:26:39.567Z,73.78
2018-08-23T03:29:06.981Z,73.75
2018-08-23T03:31:34.372Z,73.83
2018-08-23T03:34:01.778Z,73.90
2018-08-23T03:36:29.249Z,73.85
2018-08-23T03:38:56.776Z,73.90
2018-08-23T03:41:24.241Z,73.97
2018-08-23T03:43:51.637Z,74.04
2018-08-23T03:46:19.026Z,73.85
2018-08-23T03:48:46.463Z,73.98
2018-08-23T03:51:13.882Z,74.14
2018-08-23T03:53:41.398Z,74.33
2018-08-23T03:56:09.113Z,74.70
2018-08-23T03:58:36.578Z,75.29
2018-08-23T04:01:04.189Z,75.17
2018-08-23T04:03:31.617Z,75.06
2018-08-23T04:05:59.074Z,74.85
2018-08-23T04:08:26.512Z,75.16
2018-08-23T04:10:54.060Z,75.15
2018-08-23T04:13:21.456Z,75.20
2018-08-23T04:15:48.931Z,75.85
2018-08-23T04:18:16.334Z,76.33
2018-08-23T04:20:43.773Z,76.18
2018-08-23T04:23:11.262Z,76.98
2018-08-23T04:25:38.810Z,77.27
2018-08-23T04:28:06.264Z,77.44
2018-08-23T04:30:33.679Z,77.64
2018-08-23T04:33:01.255Z,77.62
2018-08-23T04:35:28.695Z,77.71
2018-08-23T04:37:56.232Z,77.40
2018-08-23T04:40:23.675Z,76.95
2018-08-23T04:42:51.122Z,76.56
2018-08-23T04:45:18.593Z,76.23
2018-08-23T04:47:46.212Z,75.94
2018-08-23T04:50:13.635Z,75.89
2018-08-23T04:52:41.073Z,76.04
2018-08-23T04:55:08.490Z,75.86
2018-08-23T04:57:35.932Z,75.59
2018-08-23T05:00:03.389Z,75.44
2018-08-23T05:02:30.919Z,75.06
2018-08-23T05:04:58.375Z,74.96
2018-08-23T05:07:25.765Z,74.68
2018-08-23T05:09:53.200Z,74.50
2018-08-23T05:12:20.798Z,74.55
2018-08-23T05:14:48.271Z,74.38
2018-08-23T05:17:15.722Z,74.52
2018-08-23T05:19:43.170Z,74.37
2018-08-23T05:22:10.672Z,74.25
2018-08-23T05:24:38.090Z,74.04
2018-08-23T05:27:05.651Z,73.85
2018-08-23T05:29:33.212Z,73.89
2018-08-23T05:32:01.087Z,73.66
2018-08-23T05:34:28.484Z,73.05
2018-08-23T05:36:55.892Z,72.66
2018-08-23T05:39:23.391Z,72.26
2018-08-23T05:41:50.937Z,72.19
2018-08-23T05:44:18.429Z,72.11
2018-08-23T05:46:45.947Z,72.01
2018-08-23T05:49:13.482Z,71.94
2018-08-23T05:51:40.955Z,72.33
2018-08-23T05:54:08.996Z,72.53
2018-08-23T05:56:36.438Z,72.58
2018-08-23T05:59:03.824Z,72.36
2018-08-23T06:01:32.260Z,72.31
2018-08-23T06:03:59.706Z,71.98
2018-08-23T06:06:27.160Z,71.37
2018-08-23T06:08:54.656Z,70.58
2018-08-23T06:11:22.136Z,70.08
2018-08-23T06:13:49.537Z,69.52
2018-08-23T06:16:17.783Z,68.77
2018-08-23T06:18:45.336Z,67.97
2018-08-23T06:21:12.754Z,67.70
2018-08-23T06:23:40.250Z,67.74
2018-08-23T06:26:07.729Z,67.50
2018-08-23T06:28:36.099Z,67.88
2018-08-23T06:31:03.531Z,68.01
2018-08-23T06:33:31.102Z,67.82
2018-08-23T06:35:58.447Z,67.12
2018-08-23T06:38:25.927Z,66.70
2018-08-23T06:40:53.384Z,65.87
2018-08-23T06:43:20.790Z,62.97
2018-08-23T06:45:49.202Z,61.40
2018-08-23T06:48:16.703Z,61.43
2018-08-23T06:50:44.129Z,62.88
2018-08-23T06:53:11.583Z,63.55
2018-08-23T06:55:39.015Z,63.54
2018-08-23T06:58:06.529Z,62.55
2018-08-23T07:00:34.719Z,62.86
2018-08-23T07:03:02.367Z,63.57
2018-08-23T07:05:29.790Z,63.89
2018-08-23T07:07:57.252Z,64.07
2018-08-23T07:10:24.695Z,64.11
2018-08-23T07:12:52.154Z,64.19
2018-08-23T07:15:19.560Z,63.63
2018-08-23T07:17:47.154Z,63.25
2018-08-23T07:20:14.486Z,63.70
2018-08-23T07:22:41.912Z,64.37
2018-08-23T07:25:09.371Z,64.09
2018-08-23T07:27:36.779Z,63.49
2018-08-23T07:30:04.593Z,63.35
2018-08-23T07:32:32.097Z,62.13
2018-08-23T07:34:59.658Z,58.64
2018-08-23T07:37:27.061Z,55.58
2018-08-23T07:39:54.634Z,53.31
2018-08-23T07:42:22.904Z,50.81
2018-08-23T07:44:50.331Z,48.75
2018-08-23T07:47:17.798Z,47.45
2018-08-23T07:49:45.810Z,47.08
2018-08-23T07:52:13.239Z,47.31
2018-08-23T07:54:40.753Z,46.28
2018-08-23T07:57:08.196Z,45.28
2018-08-23T07:59:35.620Z,44.59
2018-08-23T08:02:03.058Z,43.55
2018-08-23T08:04:30.042Z,42.35
2018-08-23T08:06:57.074Z,41.43
2018-08-23T08:09:24.162Z,40.81
2018-08-23T08:11:51.162Z,39.88
2018-08-23T08:14:18.112Z,39.34
2018-08-23T08:16:45.108Z,38.75
2018-08-23T08:19:12.571Z,38.64
2018-08-23T08:21:39.586Z,38.30
2018-08-23T08:24:06.510Z,38.02
2018-08-23T08:26:33.503Z,37.86
2018-08-23T08:29:01.103Z,38.30
2018-08-23T08:31:28.583Z,38.06
2018-08-23T08:33:56.189Z,36.93
2018-08-23T08:36:23.691Z,35.83
2018-08-23T08:38:51.163Z,35.50
2018-08-23T08:41:19.447Z,36.31
2018-08-23T08:43:46.969Z,36.49
2018-08-23T08:46:14.526Z,36.60
2018-08-23T08:48:41.505Z,36.67
2018-08-23T08:51:10.489Z,36.35
2018-08-23T08:53:37.918Z,36.76
2018-08-23T08:56:05.062Z,36.55
2018-08-23T08:58:32.108Z,36.35
2018-08-23T09:00:59.528Z,36.25
2018-08-23T09:03:27.761Z,36.70
2018-08-23T09:05:54.724Z,36.56
2018-08-23T09:08:21.657Z,37.29
2018-08-23T09:10:49.221Z,37.29
2018-08-23T09:13:16.666Z,38.17
2018-08-23T09:15:44.137Z,38.32
2018-08-23T09:18:11.653Z,37.74
2018-08-23T09:20:39.195Z,37.73
2018-08-23T09:23:06.158Z,37.78
2018-08-23T09:25:33.416Z,38.07
2018-08-23T09:28:00.815Z,38.25
2018-08-23T09:30:28.426Z,37.64
2018-08-23T09:32:55.862Z,37.78
2018-08-23T09:35:23.319Z,37.26
2018-08-23T09:37:50.745Z,37.58
2018-08-23T09:40:18.175Z,37.81
2018-08-23T09:42:45.733Z,38.08
2018-08-23T09:45:13.366Z,38.64
2018-08-23T09:47:40.848Z,39.21
2018-08-23T09:50:07.913Z,38.83
2018-08-23T09:52:35.644Z,39.34
2018-08-23T09:55:03.604Z,39.42
2018-08-23T09:57:31.463Z,38.69
2018-08-23T09:59:58.908Z,37.39
2018-08-23T10:02:32.234Z,36.69
2018-08-23T10:04:59.683Z,36.59
2018-08-23T10:07:27.213Z,36.48
2018-08-23T10:09:54.677Z,35.38
2018-08-23T10:15:20.595Z,34.73
2018-08-23T10:20:58.604Z,34.62
2018-08-23T10:23:26.089Z,34.92
2018-08-23T10:25:53.494Z,34.96
2018-08-23T10:28:20.952Z,34.96
2018-08-23T10:30:48.375Z,34.73
2018-08-23T10:33:17.210Z,34.51
2018-08-23T10:35:44.201Z,34.93
2018-08-23T10:38:11.705Z,34.56
2018-08-23T10:40:39.207Z,34.41
2018-08-23T10:43:06.674Z,33.92
2018-08-23T10:45:34.112Z,34.11
2018-08-23T10:48:01.066Z,34.01
2018-08-23T10:50:28.045Z,33.77
2018-08-23T10:52:55.498Z,33.33
2018-08-23T10:55:22.969Z,32.91
2018-08-23T10:57:49.900Z,32.33
2018-08-23T11:00:16.870Z,32.61
2018-08-23T11:02:43.899Z,32.21
2018-08-23T11:05:10.865Z,32.45
2018-08-23T11:07:37.842Z,32.09
2018-08-23T11:10:05.280Z,31.82
2018-08-23T11:12:32.830Z,31.28
2018-08-23T11:15:00.284Z,31.60
2018-08-23T11:20:22.706Z,31.05
2018-08-23T11:22:50.298Z,30.85
2018-08-23T11:25:17.710Z,31.00
2018-08-23T11:27:45.162Z,31.15
2018-08-23T11:30:12.612Z,31.28
2018-08-23T11:32:40.468Z,31.54
2018-08-23T11:35:07.894Z,31.06
2018-08-23T11:37:35.277Z,30.50
2018-08-23T11:40:02.774Z,29.06
2018-08-23T11:42:31.124Z,28.92
2018-08-23T11:44:58.626Z,27.99
2018-08-23T11:47:26.618Z,27.50
2018-08-23T11:49:54.337Z,27.71
2018-08-23T11:52:21.819Z,27.44
2018-08-23T11:54:49.311Z,27.57
2018-08-23T11:57:16.764Z,27.09
2018-08-23T11:59:43.781Z,26.95
2018-08-23T12:02:11.270Z,26.85
2018-08-23T12:04:38.291Z,27.34
2018-08-23T12:07:06.611Z,27.79
2018-08-23T12:09:33.584Z,27.82
2018-08-23T12:12:01.014Z,27.46
2018-08-23T12:14:28.637Z,27.03
2018-08-23T12:16:56.191Z,27.27
2018-08-23T12:19:23.923Z,27.20
2018-08-23T12:21:51.437Z,27.42
2018-08-23T12:24:19.003Z,27.80
2018-08-23T12:26:46.460Z,27.85
2018-08-23T12:29:14.026Z,27.63
2018-08-23T12:31:41.560Z,27.78
2018-08-23T12:34:09.100Z,27.79
2018-08-23T12:36:36.542Z,27.60
2018-08-23T12:42:18.856Z,27.41
2018-08-23T12:44:46.324Z,28.20
2018-08-23T12:47:13.749Z,28.27
2018-08-23T12:49:41.358Z,27.90
2018-08-23T12:52:08.860Z,28.28
2018-08-23T12:54:36.405Z,28.31
2018-08-23T12:57:03.858Z,27.51
2018-08-23T12:59:30.822Z,27.84
2018-08-23T13:01:58.396Z,28.51
2018-08-23T13:04:25.573Z,28.50
2018-08-23T13:06:52.630Z,28.96
2018-08-23T13:09:19.642Z,29.15
2018-08-23T13:11:46.636Z,28.90
2018-08-23T13:14:13.712Z,28.77
2018-08-23T13:16:40.839Z,28.86
2018-08-23T13:19:07.845Z,29.10
2018-08-23T13:21:34.797Z,28.76
2018-08-23T13:24:01.886Z,28.52
2018-08-23T13:26:28.881Z,28.65
2018-08-23T13:28:55.889Z,28.33
2018-08-23T13:31:22.897Z,27.87
2018-08-23T13:33:49.910Z,27.85
2018-08-23T13:36:17.100Z,28.18
2018-08-23T13:38:43.991Z,28.06
2018-08-23T13:41:11.965Z,27.84
2018-08-23T13:43:39.119Z,27.40
2018-08-23T13:46:06.059Z,27.08
2018-08-23T13:48:33.713Z,27.26
2018-08-23T13:51:00.649Z,27.31
2018-08-23T13:53:27.617Z,27.52
2018-08-23T13:55:55.074Z,27.56
2018-08-23T13:58:22.087Z,27.33
2018-08-23T14:00:49.263Z,27.54
2018-08-23T14:03:16.268Z,27.61
2018-08-23T14:05:43.233Z,27.84
2018-08-23T14:08:10.930Z,27.88
2018-08-23T14:10:38.059Z,27.70
2018-08-23T14:13:05.021Z,27.31
2018-08-23T14:15:32.030Z,28.34
2018-08-23T14:17:59.011Z,29.17
2018-08-23T14:20:25.997Z,29.65
2018-08-23T14:22:52.951Z,29.36
2018-08-23T14:25:19.963Z,28.92
2018-08-23T14:27:46.943Z,28.68
2018-08-23T14:30:13.989Z,28.21
2018-08-23T14:32:41.006Z,27.64
2018-08-23T14:35:08.025Z,27.63
2018-08-23T14:37:34.975Z,26.83
2018-08-23T14:40:02.021Z,27.15
2018-08-23T14:42:29.112Z,27.69
2018-08-23T14:44:56.172Z,27.83
2018-08-23T14:47:28.766Z,27.75
2018-08-23T14:49:57.260Z,28.67
2018-08-23T14:52:24.217Z,28.79
2018-08-23T14:54:51.212Z,28.90
2018-08-23T14:57:32.762Z,29.59
2018-08-23T14:59:59.823Z,29.30
2018-08-23T15:02:26.899Z,29.20
2018-08-23T15:04:53.861Z,29.14
2018-08-23T15:07:20.889Z,29.51
2018-08-23T15:09:47.920Z,29.49
2018-08-23T15:12:14.879Z,29.24
2018-08-23T15:14:41.839Z,28.94
2018-08-23T15:17:09.821Z,28.69
2018-08-23T15:19:37.402Z,29.09
2018-08-23T15:22:04.445Z,29.14
2018-08-23T15:24:31.460Z,29.11
2018-08-23T15:26:58.514Z,28.32
2018-08-23T15:29:25.938Z,28.66
2018-08-23T15:31:52.883Z,28.08
2018-08-23T15:34:19.879Z,28.21
2018-08-23T15:36:46.836Z,27.85
2018-08-23T15:39:13.852Z,27.96
2018-08-23T15:41:41.118Z,28.03
2018-08-23T15:44:08.092Z,27.58
2018-08-23T15:46:36.263Z,27.56
2018-08-23T15:49:03.186Z,27.56
2018-08-23T15:51:30.158Z,27.53
2018-08-23T15:53:57.171Z,27.59
2018-08-23T15:56:24.162Z,27.82
2018-08-23T15:58:51.197Z,28.00
2018-08-23T16:01:18.167Z,28.22
2018-08-23T16:03:45.124Z,28.19
2018-08-23T16:06:12.095Z,28.07
2018-08-23T16:08:39.043Z,28.12
2018-08-23T16:11:06.065Z,28.03
2018-08-23T16:13:33.838Z,28.27
2018-08-23T16:16:00.967Z,28.21
2018-08-23T16:21:27.513Z,28.47
2018-08-23T16:23:54.528Z,28.49
2018-08-23T16:26:22.580Z,28.75
2018-08-23T16:28:49.562Z,28.90
2018-08-23T16:31:16.590Z,28.94
2018-08-23T16:33:43.694Z,29.09
2018-08-23T16:36:11.702Z,29.31
2018-08-23T16:38:38.817Z,29.63
2018-08-23T16:41:05.795Z,30.12
2018-08-23T16:43:32.790Z,30.27
2018-08-23T16:46:00.265Z,30.50
2018-08-23T16:48:27.683Z,30.85
2018-08-23T16:50:55.373Z,31.33
2018-08-23T16:53:23.025Z,31.71
2018-08-23T16:55:50.690Z,32.39
2018-08-23T16:58:18.131Z,32.75
2018-08-23T17:00:45.562Z,33.10
2018-08-23T17:03:13.065Z,33.20
2018-08-23T17:05:40.532Z,33.29
2018-08-23T17:08:08.069Z,33.60
2018-08-23T17:10:35.520Z,33.58
2018-08-23T17:13:03.107Z,33.76
2018-08-23T17:15:30.704Z,33.78
2018-08-23T17:17:58.263Z,33.82
2018-08-23T17:20:25.742Z,34.07
2018-08-23T17:22:54.184Z,34.23
2018-08-23T17:25:21.762Z,34.40
2018-08-23T17:27:49.153Z,34.75
2018-08-23T17:30:16.622Z,34.96
2018-08-23T17:32:44.101Z,35.07
2018-08-23T17:35:11.547Z,35.23
2018-08-23T17:37:38.979Z,35.24
2018-08-23T17:40:06.435Z,35.57
2018-08-23T17:42:33.898Z,35.83
2018-08-23T17:45:00.919Z,36.08
2018-08-23T17:47:27.945Z,36.47
2018-08-23T17:49:55.407Z,36.44
2018-08-23T17:52:22.859Z,36.63
2018-08-23T17:54:49.876Z,36.82
2018-08-23T17:57:16.931Z,36.99
2018-08-23T17:59:44.746Z,37.09
2018-08-23T18:02:11.681Z,37.16
2018-08-23T18:04:39.340Z,37.25
2018-08-23T18:07:06.824Z,37.51
2018-08-23T18:09:34.323Z,37.77
2018-08-23T18:12:02.735Z,37.86
2018-08-23T18:14:30.188Z,38.24
2018-08-23T18:16:58.473Z,38.06
2018-08-23T18:19:26.813Z,38.22
2018-08-23T18:21:54.250Z,37.89
2018-08-23T18:24:21.777Z,37.99
2018-08-23T18:26:49.262Z,38.28
2018-08-23T18:29:16.731Z,38.29
2018-08-23T18:31:44.192Z,38.39
2018-08-23T18:34:11.684Z,38.19
2018-08-23T18:36:39.177Z,38.40
2018-08-23T18:39:06.677Z,38.72
2018-08-23T18:41:34.142Z,38.62
2018-08-23T18:44:01.584Z,38.77
2018-08-23T18:46:29.199Z,38.85
2018-08-23T18:48:56.684Z,39.03
2018-08-23T18:51:25.524Z,39.45
2018-08-23T18:53:52.933Z,39.90
2018-08-23T18:56:20.450Z,40.05
2018-08-23T18:58:48.037Z,40.48
2018-08-23T19:01:15.668Z,40.78
2018-08-23T19:03:43.168Z,40.94
2018-08-23T19:06:11.080Z,41.00
2018-08-23T19:08:38.661Z,40.99
2018-08-23T19:11:06.180Z,39.54
2018-08-23T19:13:33.630Z,38.92
2018-08-23T19:16:01.086Z,38.44
2018-08-23T19:18:28.738Z,37.84
2018-08-23T19:20:56.307Z,37.71
2018-08-23T19:23:23.791Z,37.82
2018-08-23T19:25:51.779Z,37.73
2018-08-23T19:28:19.196Z,37.62
2018-08-23T19:30:46.772Z,37.58
2018-08-23T19:33:14.881Z,37.24
2018-08-23T19:35:42.379Z,37.28
2018-08-23T19:38:09.835Z,37.38
2018-08-23T19:40:37.444Z,37.25
2018-08-23T19:43:04.845Z,37.24
2018-08-23T19:45:32.304Z,37.33
2018-08-23T19:47:59.800Z,37.56
2018-08-23T19:50:27.323Z,37.64
2018-08-23T19:52:54.773Z,37.70
2018-08-23T19:55:22.199Z,37.84
2018-08-23T19:57:50.042Z,37.92
2018-08-23T20:00:17.589Z,37.90
2018-08-23T20:02:45.167Z,37.93
2018-08-23T20:05:12.627Z,38.14
2018-08-23T20:07:40.124Z,38.30
2018-08-23T20:10:07.538Z,38.48
2018-08-23T20:12:35.072Z,39.12
2018-08-23T20:15:02.408Z,39.55
2018-08-23T20:17:29.847Z,39.47
2018-08-23T20:19:57.252Z,39.39
2018-08-23T20:22:24.731Z,39.55
2018-08-23T20:24:52.166Z,39.81
2018-08-23T20:27:19.602Z,39.94
2018-08-23T20:29:47.165Z,40.17
2018-08-23T20:32:14.658Z,40.57
2018-08-23T20:34:42.787Z,40.22
2018-08-23T20:37:10.245Z,40.39
2018-08-23T20:39:38.066Z,40.13
2018-08-23T20:42:05.498Z,39.92
2018-08-23T20:44:32.994Z,39.76
2018-08-23T20:47:00.637Z,40.21
2018-08-23T20:49:28.084Z,39.71
2018-08-23T20:51:55.538Z,39.80
2018-08-23T20:54:22.985Z,39.60
2018-08-23T20:56:50.787Z,39.74
2018-08-23T20:59:18.228Z,39.51
2018-08-23T21:01:45.642Z,39.58
2018-08-23T21:04:13.272Z,39.57
2018-08-23T21:06:40.626Z,39.84
2018-08-23T21:09:08.300Z,39.82
2018-08-23T21:11:35.709Z,40.20
2018-08-23T21:14:03.148Z,40.25
2018-08-23T21:16:30.635Z,39.96
2018-08-23T21:18:58.249Z,39.93
2018-08-23T21:21:25.826Z,39.76
2018-08-23T21:23:53.351Z,39.54
2018-08-23T21:26:20.746Z,39.21
2018-08-23T21:28:48.200Z,39.35
2018-08-23T21:31:15.645Z,39.36
2018-08-23T21:33:43.102Z,39.44
2018-08-23T21:36:10.520Z,39.73
2018-08-23T21:38:38.002Z,39.84
2018-08-23T21:41:05.669Z,39.92
2018-08-23T21:43:33.111Z,40.07
2018-08-23T21:46:00.635Z,39.37
2018-08-23T21:48:28.093Z,39.08
2018-08-23T21:50:55.511Z,39.49
2018-08-23T21:53:22.926Z,39.73
2018-08-23T21:55:50.367Z,40.18
2018-08-23T21:58:17.846Z,40.35
2018-08-23T22:00:45.326Z,40.49
2018-08-23T22:03:13.119Z,40.52
2018-08-23T22:05:40.600Z,40.86
2018-08-23T22:08:08.162Z,41.27
2018-08-23T22:10:35.695Z,41.64
2018-08-23T22:13:03.097Z,41.94
2018-08-23T22:15:30.566Z,41.71
2018-08-23T22:17:57.979Z,41.80
2018-08-23T22:20:25.552Z,42.09
2018-08-23T22:22:52.997Z,42.37
2018-08-23T22:25:20.475Z,42.64
2018-08-23T22:27:47.966Z,42.84
2018-08-23T22:30:15.455Z,43.09
2018-08-23T22:32:42.873Z,43.42
2018-08-23T22:35:10.305Z,44.01
2018-08-23T22:37:37.810Z,44.40
2018-08-23T22:40:05.253Z,44.46
2018-08-23T22:42:32.760Z,44.44
2018-08-23T22:45:00.153Z,44.62
2018-08-23T22:47:27.714Z,44.89
2018-08-23T22:49:55.300Z,45.02
2018-08-23T22:52:22.705Z,45.25
2018-08-23T22:54:50.423Z,45.29
2018-08-23T22:57:17.925Z,45.27
2018-08-23T22:59:45.384Z,45.38
2018-08-23T23:02:12.815Z,45.50
2018-08-23T23:04:40.230Z,45.71
2018-08-23T23:07:07.681Z,45.99
2018-08-23T23:09:35.111Z,46.34
2018-08-23T23:12:02.541Z,46.43
2018-08-23T23:14:29.927Z,46.84
2018-08-23T23:16:57.357Z,47.26
2018-08-23T23:19:25.056Z,48.04
2018-08-23T23:21:52.619Z,47.75
2018-08-23T23:24:20.221Z,48.16
2018-08-23T23:26:47.662Z,48.50
2018-08-23T23:29:15.116Z,48.33
2018-08-23T23:31:42.675Z,48.47
2018-08-23T23:34:10.077Z,48.03
2018-08-23T23:36:37.547Z,48.29
2018-08-23T23:39:04.990Z,48.11
2018-08-23T23:41:32.367Z,48.00
2018-08-23T23:43:59.805Z,47.96
2018-08-23T23:46:27.208Z,48.22
2018-08-23T23:48:54.879Z,48.37
2018-08-23T23:51:22.371Z,48.42
2018-08-23T23:53:49.828Z,48.67
2018-08-23T23:56:17.465Z,48.64
2018-08-23T23:58:44.903Z,48.78
